Concordia, Kansas
Current Conditions -  °F | °C
As of 6:55 AM on Saturday 20 Dec 2014 (Local Time) from KCNK Reporting Station
Haze Haze  
Wind Chill: -5°   Ceiling: Unl
Heat Index: -2°   Visibility: 5mi
Dew Point: -2°   Wind: 6mph
Humidity: 96%   Direction: 210°SSW
Pressure: 30.08"   Gusts: NA
Location:  39.57°N, 97.66°W
Report Text: KCNK 201255Z AUTO 21005KT 5SM BR CLR M02/M02 A3008 RMK AO2 SLP199 T10171022 $
Loading
Personal Weather Stations






























Interactive Weather Map New forecast layout! Learn more

10-Day Weather Forecast

Advertisements
Track Severe Weather on mobile